sensor_id;sensor_type;location;lat;lon;timestamp;pressure;altitude;pressure_sealevel;temperature
70533;BMP180;58088;51.186;17.130;2024-01-16T00:01:25;98520.20;;;4.00
70533;BMP180;58088;51.186;17.130;2024-01-16T00:03:51;98523.60;;;4.00
70533;BMP180;58088;51.186;17.130;2024-01-16T00:06:17;98538.00;;;3.90
70533;BMP180;58088;51.186;17.130;2024-01-16T00:08:43;98546.20;;;3.90
70533;BMP180;58088;51.186;17.130;2024-01-16T00:11:10;98539.60;;;3.80
70533;BMP180;58088;51.186;17.130;2024-01-16T00:13:36;98536.80;;;3.80
70533;BMP180;58088;51.186;17.130;2024-01-16T00:16:02;98544.80;;;3.76
70533;BMP180;58088;51.186;17.130;2024-01-16T00:18:31;98550.00;;;3.70
70533;BMP180;58088;51.186;17.130;2024-01-16T00:21:01;98555.00;;;3.70
70533;BMP180;58088;51.186;17.130;2024-01-16T00:23:28;98558.60;;;3.70
70533;BMP180;58088;51.186;17.130;2024-01-16T00:25:57;98567.60;;;3.70
70533;BMP180;58088;51.186;17.130;2024-01-16T00:28:23;98572.40;;;3.60
70533;BMP180;58088;51.186;17.130;2024-01-16T00:30:49;98571.80;;;3.60
70533;BMP180;58088;51.186;17.130;2024-01-16T00:33:15;98581.80;;;3.60
70533;BMP180;58088;51.186;17.130;2024-01-16T00:35:42;98585.00;;;3.70
70533;BMP180;58088;51.186;17.130;2024-01-16T00:38:08;98591.00;;;3.64
70533;BMP180;58088;51.186;17.130;2024-01-16T00:40:34;98597.60;;;3.60
70533;BMP180;58088;51.186;17.130;2024-01-16T00:43:00;98596.80;;;3.60
70533;BMP180;58088;51.186;17.130;2024-01-16T00:45:26;98605.60;;;3.60
70533;BMP180;58088;51.186;17.130;2024-01-16T00:47:52;98613.60;;;3.60
70533;BMP180;58088;51.186;17.130;2024-01-16T00:50:18;98622.40;;;3.60
70533;BMP180;58088;51.186;17.130;2024-01-16T00:52:44;98623.60;;;3.50
70533;BMP180;58088;51.186;17.130;2024-01-16T00:55:11;98631.60;;;3.50
70533;BMP180;58088;51.186;17.130;2024-01-16T00:57:37;98636.60;;;3.48
70533;BMP180;58088;51.186;17.130;2024-01-16T01:00:05;98647.00;;;3.42
70533;BMP180;58088;51.186;17.130;2024-01-16T01:02:31;98648.00;;;3.40
70533;BMP180;58088;51.186;17.130;2024-01-16T01:04:57;98641.00;;;3.40
70533;BMP180;58088;51.186;17.130;2024-01-16T01:07:24;98651.20;;;3.38
70533;BMP180;58088;51.186;17.130;2024-01-16T01:09:51;98655.60;;;3.40
70533;BMP180;58088;51.186;17.130;2024-01-16T01:12:18;98661.20;;;3.40
70533;BMP180;58088;51.186;17.130;2024-01-16T01:14:45;98667.60;;;3.40
70533;BMP180;58088;51.186;17.130;2024-01-16T01:17:12;98664.60;;;3.40
70533;BMP180;58088;51.186;17.130;2024-01-16T01:19:38;98665.80;;;3.34
70533;BMP180;58088;51.186;17.130;2024-01-16T01:22:04;98671.00;;;3.30
70533;BMP180;58088;51.186;17.130;2024-01-16T01:24:30;98679.00;;;3.30
70533;BMP180;58088;51.186;17.130;2024-01-16T01:26:57;98688.20;;;3.30
70533;BMP180;58088;51.186;17.130;2024-01-16T01:29:24;98690.60;;;3.30
70533;BMP180;58088;51.186;17.130;2024-01-16T01:31:51;98690.00;;;3.30
70533;BMP180;58088;51.186;17.130;2024-01-16T01:34:17;98698.40;;;3.30
70533;BMP180;58088;51.186;17.130;2024-01-16T01:36:44;98695.20;;;3.40
70533;BMP180;58088;51.186;17.130;2024-01-16T01:39:10;98701.40;;;3.30
70533;BMP180;58088;51.186;17.130;2024-01-16T01:41:39;98699.60;;;3.30
70533;BMP180;58088;51.186;17.130;2024-01-16T01:44:06;98696.20;;;3.30
70533;BMP180;58088;51.186;17.130;2024-01-16T01:46:33;98697.40;;;3.30
70533;BMP180;58088;51.186;17.130;2024-01-16T01:49:00;98706.40;;;3.30
70533;BMP180;58088;51.186;17.130;2024-01-16T01:51:27;98711.00;;;3.30
70533;BMP180;58088;51.186;17.130;2024-01-16T01:53:53;98712.60;;;3.30
70533;BMP180;58088;51.186;17.130;2024-01-16T01:56:20;98710.00;;;3.22
70533;BMP180;58088;51.186;17.130;2024-01-16T01:58:49;98720.40;;;3.20
70533;BMP180;58088;51.186;17.130;2024-01-16T02:01:19;98720.60;;;3.20
70533;BMP180;58088;51.186;17.130;2024-01-16T02:03:47;98721.20;;;3.20
70533;BMP180;58088;51.186;17.130;2024-01-16T02:06:15;98721.60;;;3.30
70533;BMP180;58088;51.186;17.130;2024-01-16T02:08:42;98721.20;;;3.30
70533;BMP180;58088;51.186;17.130;2024-01-16T02:11:09;98720.60;;;3.30
70533;BMP180;58088;51.186;17.130;2024-01-16T02:13:36;98725.40;;;3.30
70533;BMP180;58088;51.186;17.130;2024-01-16T02:16:03;98741.80;;;3.30
70533;BMP180;58088;51.186;17.130;2024-01-16T02:18:29;98746.00;;;3.30
70533;BMP180;58088;51.186;17.130;2024-01-16T02:21:00;98754.60;;;3.22
70533;BMP180;58088;51.186;17.130;2024-01-16T02:23:29;98761.20;;;3.20
70533;BMP180;58088;51.186;17.130;2024-01-16T02:25:57;98761.80;;;3.10
70533;BMP180;58088;51.186;17.130;2024-01-16T02:28:23;98760.40;;;2.98
70533;BMP180;58088;51.186;17.130;2024-01-16T02:30:49;98759.20;;;2.90
70533;BMP180;58088;51.186;17.130;2024-01-16T02:33:15;98763.00;;;2.80
70533;BMP180;58088;51.186;17.130;2024-01-16T02:35:41;98761.20;;;2.80
70533;BMP180;58088;51.186;17.130;2024-01-16T02:38:07;98767.80;;;2.80
70533;BMP180;58088;51.186;17.130;2024-01-16T02:40:33;98766.80;;;2.70
70533;BMP180;58088;51.186;17.130;2024-01-16T02:43:00;98767.80;;;2.70
70533;BMP180;58088;51.186;17.130;2024-01-16T02:45:26;98773.80;;;2.78
70533;BMP180;58088;51.186;17.130;2024-01-16T02:47:52;98777.20;;;2.80
70533;BMP180;58088;51.186;17.130;2024-01-16T02:50:18;98776.80;;;2.86
70533;BMP180;58088;51.186;17.130;2024-01-16T02:52:46;98778.40;;;2.90
70533;BMP180;58088;51.186;17.130;2024-01-16T02:55:12;98786.20;;;2.86
70533;BMP180;58088;51.186;17.130;2024-01-16T02:57:38;98790.00;;;2.80
70533;BMP180;58088;51.186;17.130;2024-01-16T03:00:06;98797.60;;;2.80
70533;BMP180;58088;51.186;17.130;2024-01-16T03:02:34;98796.60;;;2.80
70533;BMP180;58088;51.186;17.130;2024-01-16T03:05:18;98805.60;;;2.74
70533;BMP180;58088;51.186;17.130;2024-01-16T03:07:45;98802.20;;;2.70
70533;BMP180;58088;51.186;17.130;2024-01-16T03:10:11;98806.40;;;2.70
70533;BMP180;58088;51.186;17.130;2024-01-16T03:12:38;98808.40;;;2.70
70533;BMP180;58088;51.186;17.130;2024-01-16T03:15:04;98807.60;;;2.70
70533;BMP180;58088;51.186;17.130;2024-01-16T03:17:31;98806.60;;;2.60
70533;BMP180;58088;51.186;17.130;2024-01-16T03:19:57;98813.80;;;2.60
70533;BMP180;58088;51.186;17.130;2024-01-16T03:22:23;98811.40;;;2.60
70533;BMP180;58088;51.186;17.130;2024-01-16T03:24:50;98811.60;;;2.60
70533;BMP180;58088;51.186;17.130;2024-01-16T03:27:16;98820.40;;;2.50
70533;BMP180;58088;51.186;17.130;2024-01-16T03:29:42;98821.20;;;2.50
70533;BMP180;58088;51.186;17.130;2024-01-16T03:32:08;98819.80;;;2.42
70533;BMP180;58088;51.186;17.130;2024-01-16T03:34:34;98814.80;;;2.40
70533;BMP180;58088;51.186;17.130;2024-01-16T03:37:01;98817.60;;;2.40
70533;BMP180;58088;51.186;17.130;2024-01-16T03:39:27;98822.40;;;2.40
70533;BMP180;58088;51.186;17.130;2024-01-16T03:41:53;98827.40;;;2.40
70533;BMP180;58088;51.186;17.130;2024-01-16T03:44:19;98830.80;;;2.40
70533;BMP180;58088;51.186;17.130;2024-01-16T03:46:45;98828.00;;;2.40
70533;BMP180;58088;51.186;17.130;2024-01-16T03:49:11;98828.80;;;2.40
70533;BMP180;58088;51.186;17.130;2024-01-16T03:51:37;98830.60;;;2.40
70533;BMP180;58088;51.186;17.130;2024-01-16T03:54:04;98826.20;;;2.46
70533;BMP180;58088;51.186;17.130;2024-01-16T03:56:30;98822.60;;;2.50
70533;BMP180;58088;51.186;17.130;2024-01-16T03:58:56;98825.80;;;2.50
70533;BMP180;58088;51.186;17.130;2024-01-16T04:01:34;98838.60;;;2.50
70533;BMP180;58088;51.186;17.130;2024-01-16T04:04:04;98841.60;;;2.50
70533;BMP180;58088;51.186;17.130;2024-01-16T04:06:33;98837.80;;;2.40
70533;BMP180;58088;51.186;17.130;2024-01-16T04:08:59;98844.20;;;2.40
70533;BMP180;58088;51.186;17.130;2024-01-16T04:11:25;98843.60;;;2.40
70533;BMP180;58088;51.186;17.130;2024-01-16T04:13:52;98837.20;;;2.40
70533;BMP180;58088;51.186;17.130;2024-01-16T04:16:18;98852.00;;;2.40
70533;BMP180;58088;51.186;17.130;2024-01-16T04:18:44;98851.40;;;2.40
70533;BMP180;58088;51.186;17.130;2024-01-16T04:21:10;98844.60;;;2.40
70533;BMP180;58088;51.186;17.130;2024-01-16T04:23:37;98842.80;;;2.40
70533;BMP180;58088;51.186;17.130;2024-01-16T04:26:03;98850.40;;;2.46
70533;BMP180;58088;51.186;17.130;2024-01-16T04:28:29;98853.20;;;2.50
70533;BMP180;58088;51.186;17.130;2024-01-16T04:30:55;98863.00;;;2.44
70533;BMP180;58088;51.186;17.130;2024-01-16T04:33:22;98857.40;;;2.50
70533;BMP180;58088;51.186;17.130;2024-01-16T04:35:48;98866.00;;;2.50
70533;BMP180;58088;51.186;17.130;2024-01-16T04:38:14;98864.00;;;2.48
70533;BMP180;58088;51.186;17.130;2024-01-16T04:40:41;98870.20;;;2.40
70533;BMP180;58088;51.186;17.130;2024-01-16T04:43:07;98874.00;;;2.40
70533;BMP180;58088;51.186;17.130;2024-01-16T04:45:33;98876.40;;;2.50
70533;BMP180;58088;51.186;17.130;2024-01-16T04:48:00;98872.60;;;2.40
70533;BMP180;58088;51.186;17.130;2024-01-16T04:50:27;98867.20;;;2.40
70533;BMP180;58088;51.186;17.130;2024-01-16T04:53:01;98863.00;;;2.44
70533;BMP180;58088;51.186;17.130;2024-01-16T04:55:29;98871.20;;;2.50
70533;BMP180;58088;51.186;17.130;2024-01-16T04:57:56;98880.20;;;2.50
70533;BMP180;58088;51.186;17.130;2024-01-16T05:00:23;98895.00;;;2.50
70533;BMP180;58088;51.186;17.130;2024-01-16T05:02:49;98902.40;;;2.50
70533;BMP180;58088;51.186;17.130;2024-01-16T05:05:17;98898.40;;;2.50
70533;BMP180;58088;51.186;17.130;2024-01-16T05:07:43;98910.40;;;2.50
70533;BMP180;58088;51.186;17.130;2024-01-16T05:10:11;98912.40;;;2.40
70533;BMP180;58088;51.186;17.130;2024-01-16T05:12:41;98911.40;;;2.40
70533;BMP180;58088;51.186;17.130;2024-01-16T05:15:08;98911.20;;;2.40
70533;BMP180;58088;51.186;17.130;2024-01-16T05:17:37;98911.80;;;2.40
70533;BMP180;58088;51.186;17.130;2024-01-16T05:20:04;98907.40;;;2.40
70533;BMP180;58088;51.186;17.130;2024-01-16T05:22:31;98900.40;;;2.40
70533;BMP180;58088;51.186;17.130;2024-01-16T05:24:58;98905.80;;;2.50
70533;BMP180;58088;51.186;17.130;2024-01-16T05:27:24;98908.60;;;2.52
70533;BMP180;58088;51.186;17.130;2024-01-16T05:29:51;98891.40;;;2.60
70533;BMP180;58088;51.186;17.130;2024-01-16T05:32:17;98900.40;;;2.70
70533;BMP180;58088;51.186;17.130;2024-01-16T05:34:43;98904.00;;;2.70
70533;BMP180;58088;51.186;17.130;2024-01-16T05:37:09;98901.20;;;2.80
70533;BMP180;58088;51.186;17.130;2024-01-16T05:39:37;98903.40;;;2.70
70533;BMP180;58088;51.186;17.130;2024-01-16T05:42:03;98903.60;;;2.80
70533;BMP180;58088;51.186;17.130;2024-01-16T05:44:29;98910.00;;;2.80
70533;BMP180;58088;51.186;17.130;2024-01-16T05:46:56;98917.20;;;2.80
70533;BMP180;58088;51.186;17.130;2024-01-16T05:49:22;98921.60;;;2.80
70533;BMP180;58088;51.186;17.130;2024-01-16T05:51:48;98928.60;;;2.80
70533;BMP180;58088;51.186;17.130;2024-01-16T05:54:15;98930.80;;;2.80
70533;BMP180;58088;51.186;17.130;2024-01-16T05:56:41;98936.80;;;2.70
70533;BMP180;58088;51.186;17.130;2024-01-16T05:59:07;98956.00;;;2.70
70533;BMP180;58088;51.186;17.130;2024-01-16T06:01:33;98953.00;;;2.70
70533;BMP180;58088;51.186;17.130;2024-01-16T06:04:00;98959.20;;;2.70
70533;BMP180;58088;51.186;17.130;2024-01-16T06:06:26;98961.40;;;2.60
70533;BMP180;58088;51.186;17.130;2024-01-16T06:08:52;98965.80;;;2.60
70533;BMP180;58088;51.186;17.130;2024-01-16T06:11:32;98971.20;;;2.50
70533;BMP180;58088;51.186;17.130;2024-01-16T06:14:04;98961.80;;;2.40
70533;BMP180;58088;51.186;17.130;2024-01-16T06:16:30;98969.20;;;2.40
70533;BMP180;58088;51.186;17.130;2024-01-16T06:18:57;98979.60;;;2.40
70533;BMP180;58088;51.186;17.130;2024-01-16T06:21:23;98982.60;;;2.40
70533;BMP180;58088;51.186;17.130;2024-01-16T06:23:50;98972.20;;;2.30
70533;BMP180;58088;51.186;17.130;2024-01-16T06:26:16;98964.80;;;2.30
70533;BMP180;58088;51.186;17.130;2024-01-16T06:28:43;98964.60;;;2.30
70533;BMP180;58088;51.186;17.130;2024-01-16T06:31:10;98970.80;;;2.30
70533;BMP180;58088;51.186;17.130;2024-01-16T06:33:36;98974.00;;;2.30
70533;BMP180;58088;51.186;17.130;2024-01-16T06:36:03;98977.00;;;2.40
70533;BMP180;58088;51.186;17.130;2024-01-16T06:38:32;98986.00;;;2.40
70533;BMP180;58088;51.186;17.130;2024-01-16T06:40:58;98988.40;;;2.40
70533;BMP180;58088;51.186;17.130;2024-01-16T06:43:25;98996.00;;;2.40
70533;BMP180;58088;51.186;17.130;2024-01-16T06:45:51;98998.80;;;2.40
70533;BMP180;58088;51.186;17.130;2024-01-16T06:48:18;98995.80;;;2.40
70533;BMP180;58088;51.186;17.130;2024-01-16T06:50:44;99003.80;;;2.40
70533;BMP180;58088;51.186;17.130;2024-01-16T06:53:10;99009.20;;;2.36
70533;BMP180;58088;51.186;17.130;2024-01-16T06:55:36;99021.60;;;2.30
70533;BMP180;58088;51.186;17.130;2024-01-16T06:58:03;99021.60;;;2.38
70533;BMP180;58088;51.186;17.130;2024-01-16T07:00:29;99028.20;;;2.40
70533;BMP180;58088;51.186;17.130;2024-01-16T07:02:55;99034.20;;;2.38
70533;BMP180;58088;51.186;17.130;2024-01-16T07:05:23;99036.80;;;2.30
70533;BMP180;58088;51.186;17.130;2024-01-16T07:07:49;99038.40;;;2.30
70533;BMP180;58088;51.186;17.130;2024-01-16T07:10:15;99052.00;;;2.30
70533;BMP180;58088;51.186;17.130;2024-01-16T07:12:45;99062.60;;;2.28
70533;BMP180;58088;51.186;17.130;2024-01-16T07:15:11;99063.60;;;2.20
70533;BMP180;58088;51.186;17.130;2024-01-16T07:17:37;99073.60;;;2.20
70533;BMP180;58088;51.186;17.130;2024-01-16T07:20:04;99078.60;;;2.20
70533;BMP180;58088;51.186;17.130;2024-01-16T07:22:31;99087.60;;;2.20
70533;BMP180;58088;51.186;17.130;2024-01-16T07:24:58;99088.00;;;2.20
70533;BMP180;58088;51.186;17.130;2024-01-16T07:27:25;99092.60;;;2.20
70533;BMP180;58088;51.186;17.130;2024-01-16T07:29:52;99097.40;;;2.10
70533;BMP180;58088;51.186;17.130;2024-01-16T07:32:18;99103.20;;;2.10
70533;BMP180;58088;51.186;17.130;2024-01-16T07:34:44;99111.40;;;2.10
70533;BMP180;58088;51.186;17.130;2024-01-16T07:37:11;99122.80;;;2.10
70533;BMP180;58088;51.186;17.130;2024-01-16T07:39:38;99126.40;;;2.10
70533;BMP180;58088;51.186;17.130;2024-01-16T07:42:04;99124.00;;;2.10
70533;BMP180;58088;51.186;17.130;2024-01-16T07:44:31;99129.20;;;2.12
70533;BMP180;58088;51.186;17.130;2024-01-16T07:46:57;99139.20;;;2.20
70533;BMP180;58088;51.186;17.130;2024-01-16T07:49:24;99146.80;;;2.20
70533;BMP180;58088;51.186;17.130;2024-01-16T07:51:51;99144.40;;;2.20
70533;BMP180;58088;51.186;17.130;2024-01-16T07:54:17;99145.60;;;2.20
70533;BMP180;58088;51.186;17.130;2024-01-16T07:56:43;99152.80;;;2.20
70533;BMP180;58088;51.186;17.130;2024-01-16T07:59:12;99155.80;;;2.30
70533;BMP180;58088;51.186;17.130;2024-01-16T08:01:43;99160.40;;;2.30
70533;BMP180;58088;51.186;17.130;2024-01-16T08:04:10;99155.20;;;2.40
70533;BMP180;58088;51.186;17.130;2024-01-16T08:06:45;99151.20;;;2.40
70533;BMP180;58088;51.186;17.130;2024-01-16T08:09:11;99160.20;;;2.44
70533;BMP180;58088;51.186;17.130;2024-01-16T08:11:38;99161.20;;;2.48
70533;BMP180;58088;51.186;17.130;2024-01-16T08:14:08;99170.60;;;2.50
70533;BMP180;58088;51.186;17.130;2024-01-16T08:16:34;99180.00;;;2.60
70533;BMP180;58088;51.186;17.130;2024-01-16T08:19:02;99182.00;;;2.70
70533;BMP180;58088;51.186;17.130;2024-01-16T08:21:30;99181.60;;;2.70
70533;BMP180;58088;51.186;17.130;2024-01-16T08:23:56;99187.20;;;2.80
70533;BMP180;58088;51.186;17.130;2024-01-16T08:26:23;99187.80;;;2.90
70533;BMP180;58088;51.186;17.130;2024-01-16T08:28:57;99191.00;;;2.92
70533;BMP180;58088;51.186;17.130;2024-01-16T08:31:23;99197.60;;;3.00
70533;BMP180;58088;51.186;17.130;2024-01-16T08:33:53;99203.60;;;3.00
70533;BMP180;58088;51.186;17.130;2024-01-16T08:36:25;99211.20;;;3.10
70533;BMP180;58088;51.186;17.130;2024-01-16T08:38:55;99216.40;;;3.10
70533;BMP180;58088;51.186;17.130;2024-01-16T08:41:21;99220.20;;;3.10
70533;BMP180;58088;51.186;17.130;2024-01-16T08:43:47;99220.40;;;3.00
70533;BMP180;58088;51.186;17.130;2024-01-16T08:46:14;99219.80;;;3.00
70533;BMP180;58088;51.186;17.130;2024-01-16T08:48:41;99222.40;;;3.10
70533;BMP180;58088;51.186;17.130;2024-01-16T08:51:11;99230.00;;;3.10
70533;BMP180;58088;51.186;17.130;2024-01-16T08:53:41;99230.80;;;3.12
70533;BMP180;58088;51.186;17.130;2024-01-16T08:56:12;99234.20;;;3.20
70533;BMP180;58088;51.186;17.130;2024-01-16T08:58:38;99234.80;;;3.30
70533;BMP180;58088;51.186;17.130;2024-01-16T09:01:06;99242.80;;;3.38
70533;BMP180;58088;51.186;17.130;2024-01-16T09:03:34;99236.00;;;3.30
70533;BMP180;58088;51.186;17.130;2024-01-16T09:06:00;99237.80;;;3.40
70533;BMP180;58088;51.186;17.130;2024-01-16T09:08:27;99238.80;;;3.50
70533;BMP180;58088;51.186;17.130;2024-01-16T09:10:54;99244.40;;;3.70
70533;BMP180;58088;51.186;17.130;2024-01-16T09:13:22;99247.80;;;3.90
70533;BMP180;58088;51.186;17.130;2024-01-16T09:15:49;99248.80;;;4.00
70533;BMP180;58088;51.186;17.130;2024-01-16T09:18:16;99250.20;;;4.08
70533;BMP180;58088;51.186;17.130;2024-01-16T09:20:43;99243.00;;;4.16
70533;BMP180;58088;51.186;17.130;2024-01-16T09:23:10;99240.60;;;4.30
70533;BMP180;58088;51.186;17.130;2024-01-16T09:25:36;99230.60;;;4.44
70533;BMP180;58088;51.186;17.130;2024-01-16T09:28:03;99238.00;;;4.54
70533;BMP180;58088;51.186;17.130;2024-01-16T09:30:30;99228.60;;;4.62
70533;BMP180;58088;51.186;17.130;2024-01-16T10:04:55;99265.80;;;4.96
70533;BMP180;58088;51.186;17.130;2024-01-16T10:07:21;99275.20;;;4.90
70533;BMP180;58088;51.186;17.130;2024-01-16T10:09:57;99280.20;;;4.80
70533;BMP180;58088;51.186;17.130;2024-01-16T10:12:24;99283.40;;;4.80
70533;BMP180;58088;51.186;17.130;2024-01-16T10:14:51;99283.60;;;4.70
70533;BMP180;58088;51.186;17.130;2024-01-16T10:17:17;99287.80;;;4.60
70533;BMP180;58088;51.186;17.130;2024-01-16T10:19:52;99293.60;;;4.50
70533;BMP180;58088;51.186;17.130;2024-01-16T10:22:23;99288.40;;;4.40
70533;BMP180;58088;51.186;17.130;2024-01-16T10:25:12;99288.40;;;4.40
70533;BMP180;58088;51.186;17.130;2024-01-16T10:27:43;99287.60;;;4.30
70533;BMP180;58088;51.186;17.130;2024-01-16T10:30:13;99290.20;;;4.40
70533;BMP180;58088;51.186;17.130;2024-01-16T10:32:43;99293.80;;;4.40
70533;BMP180;58088;51.186;17.130;2024-01-16T10:35:11;99300.40;;;4.30
70533;BMP180;58088;51.186;17.130;2024-01-16T10:37:52;99304.80;;;4.30
70533;BMP180;58088;51.186;17.130;2024-01-16T10:40:24;99306.00;;;4.30
70533;BMP180;58088;51.186;17.130;2024-01-16T10:43:04;99305.80;;;4.20
70533;BMP180;58088;51.186;17.130;2024-01-16T10:45:33;99306.20;;;4.30
70533;BMP180;58088;51.186;17.130;2024-01-16T10:48:05;99310.80;;;4.42
70533;BMP180;58088;51.186;17.130;2024-01-16T10:50:34;99310.40;;;4.60
70533;BMP180;58088;51.186;17.130;2024-01-16T10:53:08;99315.00;;;4.62
70533;BMP180;58088;51.186;17.130;2024-01-16T10:55:51;99318.00;;;4.60
70533;BMP180;58088;51.186;17.130;2024-01-16T10:58:23;99325.80;;;4.40
70533;BMP180;58088;51.186;17.130;2024-01-16T11:00:59;99318.40;;;4.40
70533;BMP180;58088;51.186;17.130;2024-01-16T11:03:50;99322.00;;;4.40
70533;BMP180;58088;51.186;17.130;2024-01-16T11:06:19;99319.60;;;4.40
70533;BMP180;58088;51.186;17.130;2024-01-16T11:08:47;99321.00;;;4.40
70533;BMP180;58088;51.186;17.130;2024-01-16T11:11:23;99316.20;;;4.40
70533;BMP180;58088;51.186;17.130;2024-01-16T11:13:50;99318.00;;;4.40
70533;BMP180;58088;51.186;17.130;2024-01-16T11:16:18;99314.20;;;4.50
70533;BMP180;58088;51.186;17.130;2024-01-16T11:18:46;99325.80;;;4.52
70533;BMP180;58088;51.186;17.130;2024-01-16T11:21:14;99325.40;;;4.60
70533;BMP180;58088;51.186;17.130;2024-01-16T11:23:46;99325.80;;;4.60
70533;BMP180;58088;51.186;17.130;2024-01-16T11:26:32;99322.80;;;4.50
70533;BMP180;58088;51.186;17.130;2024-01-16T11:29:00;99315.80;;;4.50
70533;BMP180;58088;51.186;17.130;2024-01-16T11:31:34;99318.60;;;4.40
70533;BMP180;58088;51.186;17.130;2024-01-16T11:34:02;99324.40;;;4.40
70533;BMP180;58088;51.186;17.130;2024-01-16T11:36:52;99322.60;;;4.36
70533;BMP180;58088;51.186;17.130;2024-01-16T11:39:24;99328.40;;;4.30
70533;BMP180;58088;51.186;17.130;2024-01-16T11:42:00;99327.40;;;4.40
70533;BMP180;58088;51.186;17.130;2024-01-16T11:44:48;99328.80;;;4.48
70533;BMP180;58088;51.186;17.130;2024-01-16T11:47:23;99332.80;;;4.40
70533;BMP180;58088;51.186;17.130;2024-01-16T11:50:10;99327.20;;;4.30
70533;BMP180;58088;51.186;17.130;2024-01-16T11:52:45;99337.00;;;4.30
70533;BMP180;58088;51.186;17.130;2024-01-16T11:55:47;99337.40;;;4.20
70533;BMP180;58088;51.186;17.130;2024-01-16T12:00:59;99350.20;;;3.86
70533;BMP180;58088;51.186;17.130;2024-01-16T12:03:25;99352.60;;;3.80
70533;BMP180;58088;51.186;17.130;2024-01-16T12:06:01;99356.20;;;3.80
70533;BMP180;58088;51.186;17.130;2024-01-16T12:08:29;99357.20;;;3.62
70533;BMP180;58088;51.186;17.130;2024-01-16T12:10:56;99355.80;;;3.60
70533;BMP180;58088;51.186;17.130;2024-01-16T12:13:26;99358.40;;;3.60
70533;BMP180;58088;51.186;17.130;2024-01-16T12:16:06;99357.60;;;3.60
70533;BMP180;58088;51.186;17.130;2024-01-16T12:18:36;99356.40;;;3.56
70533;BMP180;58088;51.186;17.130;2024-01-16T12:21:11;99357.40;;;3.60
70533;BMP180;58088;51.186;17.130;2024-01-16T12:23:40;99361.20;;;3.60
70533;BMP180;58088;51.186;17.130;2024-01-16T12:26:07;99363.60;;;3.68
70533;BMP180;58088;51.186;17.130;2024-01-16T12:28:33;99368.40;;;3.60
70533;BMP180;58088;51.186;17.130;2024-01-16T12:31:00;99369.40;;;3.50
70533;BMP180;58088;51.186;17.130;2024-01-16T12:33:26;99363.60;;;3.40
70533;BMP180;58088;51.186;17.130;2024-01-16T12:36:02;99371.20;;;3.36
70533;BMP180;58088;51.186;17.130;2024-01-16T12:38:29;99372.60;;;3.22
70533;BMP180;58088;51.186;17.130;2024-01-16T12:40:56;99374.40;;;3.20
70533;BMP180;58088;51.186;17.130;2024-01-16T12:43:24;99378.40;;;3.20
70533;BMP180;58088;51.186;17.130;2024-01-16T12:45:56;99389.60;;;3.10
70533;BMP180;58088;51.186;17.130;2024-01-16T12:48:26;99383.40;;;3.14
70533;BMP180;58088;51.186;17.130;2024-01-16T12:51:00;99392.00;;;3.20
70533;BMP180;58088;51.186;17.130;2024-01-16T12:53:29;99390.20;;;3.20
70533;BMP180;58088;51.186;17.130;2024-01-16T12:55:59;99392.40;;;3.18
70533;BMP180;58088;51.186;17.130;2024-01-16T12:58:35;99394.20;;;3.20
70533;BMP180;58088;51.186;17.130;2024-01-16T13:01:27;99391.60;;;3.26
70533;BMP180;58088;51.186;17.130;2024-01-16T13:03:55;99398.20;;;3.20
70533;BMP180;58088;51.186;17.130;2024-01-16T13:06:23;99396.80;;;3.24
70533;BMP180;58088;51.186;17.130;2024-01-16T13:08:50;99399.40;;;3.30
70533;BMP180;58088;51.186;17.130;2024-01-16T13:11:17;99400.00;;;3.30
70533;BMP180;58088;51.186;17.130;2024-01-16T13:13:47;99395.60;;;3.30
70533;BMP180;58088;51.186;17.130;2024-01-16T13:16:17;99393.20;;;3.20
70533;BMP180;58088;51.186;17.130;2024-01-16T13:18:43;99394.00;;;3.20
70533;BMP180;58088;51.186;17.130;2024-01-16T13:21:09;99389.20;;;3.30
70533;BMP180;58088;51.186;17.130;2024-01-16T13:23:36;99391.20;;;3.40
70533;BMP180;58088;51.186;17.130;2024-01-16T13:26:02;99394.20;;;3.30
70533;BMP180;58088;51.186;17.130;2024-01-16T13:28:33;99386.60;;;3.20
70533;BMP180;58088;51.186;17.130;2024-01-16T13:30:59;99391.00;;;3.20
70533;BMP180;58088;51.186;17.130;2024-01-16T13:33:25;99400.00;;;3.20
70533;BMP180;58088;51.186;17.130;2024-01-16T13:35:53;99402.60;;;3.20
70533;BMP180;58088;51.186;17.130;2024-01-16T13:38:21;99401.00;;;3.10
70533;BMP180;58088;51.186;17.130;2024-01-16T13:40:47;99400.60;;;3.00
70533;BMP180;58088;51.186;17.130;2024-01-16T13:43:13;99401.60;;;3.00
70533;BMP180;58088;51.186;17.130;2024-01-16T13:45:40;99402.20;;;3.10
70533;BMP180;58088;51.186;17.130;2024-01-16T13:48:07;99400.80;;;3.10
70533;BMP180;58088;51.186;17.130;2024-01-16T13:50:34;99411.80;;;3.10
70533;BMP180;58088;51.186;17.130;2024-01-16T13:53:01;99413.20;;;3.10
70533;BMP180;58088;51.186;17.130;2024-01-16T13:55:30;99408.00;;;3.20
70533;BMP180;58088;51.186;17.130;2024-01-16T13:57:58;99413.00;;;3.22
70533;BMP180;58088;51.186;17.130;2024-01-16T14:00:24;99409.80;;;3.30
70533;BMP180;58088;51.186;17.130;2024-01-16T14:02:50;99408.80;;;3.30
70533;BMP180;58088;51.186;17.130;2024-01-16T14:05:19;99411.20;;;3.30
70533;BMP180;58088;51.186;17.130;2024-01-16T14:07:49;99404.80;;;3.22
70533;BMP180;58088;51.186;17.130;2024-01-16T14:10:21;99416.20;;;3.26
70533;BMP180;58088;51.186;17.130;2024-01-16T14:12:50;99410.80;;;3.24
70533;BMP180;58088;51.186;17.130;2024-01-16T14:15:20;99411.20;;;3.20
70533;BMP180;58088;51.186;17.130;2024-01-16T14:17:51;99420.80;;;3.20
70533;BMP180;58088;51.186;17.130;2024-01-16T14:20:20;99423.40;;;3.20
70533;BMP180;58088;51.186;17.130;2024-01-16T14:22:50;99416.60;;;3.20
70533;BMP180;58088;51.186;17.130;2024-01-16T14:25:18;99420.00;;;3.20
70533;BMP180;58088;51.186;17.130;2024-01-16T14:27:58;99421.60;;;3.20
70533;BMP180;58088;51.186;17.130;2024-01-16T14:30:26;99420.20;;;3.10
70533;BMP180;58088;51.186;17.130;2024-01-16T14:32:53;99420.80;;;3.10
70533;BMP180;58088;51.186;17.130;2024-01-16T14:35:28;99421.80;;;3.10
70533;BMP180;58088;51.186;17.130;2024-01-16T14:37:54;99429.80;;;3.00
70533;BMP180;58088;51.186;17.130;2024-01-16T14:40:21;99421.60;;;3.00
70533;BMP180;58088;51.186;17.130;2024-01-16T14:42:52;99426.00;;;3.00
70533;BMP180;58088;51.186;17.130;2024-01-16T14:45:26;99428.60;;;3.00
70533;BMP180;58088;51.186;17.130;2024-01-16T14:47:57;99427.60;;;3.00
70533;BMP180;58088;51.186;17.130;2024-01-16T14:50:23;99426.20;;;2.96